Ionia, Missouri
Current Conditions -  °F | °C
As of 1:53 AM on Saturday 01 Nov 2014 (Local Time) from KDMO Reporting Station
Clear Clear  
Wind Chill: 24°   Ceiling: Unl
Heat Index: 30°   Visibility: 10mi
Dew Point: 21°   Wind: 6mph
Humidity: 69%   Direction: 20°NNE
Pressure: 30.47"   Gusts: NA
Location:  38.5°N, 93.32°W
Report Text: KDMO 010653Z AUTO 02005KT 10SM CLR M01/M06 A3047 RMK AO2 SLP324 T10111061
Loading
Personal Weather Stations






























Interactive Weather Map
Tropical Storm Tracking
New forecast layout! Learn more

10-Day Weather Forecast

Advertisements
Track Severe Weather on mobile